Time;durP1;ratioP1;P1;durP2;ratioP2;P2;SDS_P1;SDS_P2;PMS_P1;PMS_P2;Temp;Humidity;BMP_temperature;BMP_pressure;BME280_temperature;BME280_humidity;BME280_pressure;Samples;Min_cycle;Max_cycle;Signal;HPM_P1;HPM_P2
2023/12/20 00:03:05;;;;;;;54.88;42.60;;;6.30;81.00;;;;;;12586261;28;20036;-75
2023/12/20 00:09:08;;;;;;;55.20;49.42;;;6.30;81.00;;;;;;12603900;28;20028;-76
2023/12/20 00:15:14;;;;;;;72.95;65.82;;;6.40;80.80;;;;;;12586524;28;20441;-76
2023/12/20 00:21:16;;;;;;;50.53;43.90;;;6.40;80.60;;;;;;12603602;28;20357;-75
2023/12/20 00:27:17;;;;;;;61.15;54.63;;;6.40;80.60;;;;;;12603469;28;20028;-76
2023/12/20 00:33:19;;;;;;;54.00;48.65;;;6.40;80.50;;;;;;12585342;28;20048;-76
2023/12/20 00:39:21;;;;;;;54.22;47.17;;;6.20;80.60;;;;;;12603168;28;20033;-76
2023/12/20 00:45:22;;;;;;;52.65;46.80;;;6.20;80.70;;;;;;12611898;28;20040;-75
2023/12/20 00:51:24;;;;;;;46.35;40.42;;;6.10;80.70;;;;;;12594911;28;20028;-76
2023/12/20 00:57:25;;;;;;;45.25;39.38;;;6.10;80.70;;;;;;12612237;28;20039;-76
2023/12/20 01:03:27;;;;;;;42.40;37.80;;;6.00;80.70;;;;;;12594221;28;20024;-76
2023/12/20 01:09:28;;;;;;;46.75;38.70;;;5.90;80.70;;;;;;12594018;28;20039;-76
2023/12/20 01:15:30;;;;;;;47.28;41.78;;;6.00;80.60;;;;;;12612395;28;20037;-76
2023/12/20 01:21:32;;;;;;;74.50;66.72;;;6.00;80.50;;;;;;12593452;28;20033;-76
2023/12/20 01:27:33;;;;;;;47.63;42.45;;;6.00;80.40;;;;;;12543449;28;20029;-76
2023/12/20 01:33:35;;;;;;;49.60;44.33;;;5.90;80.60;;;;;;12560849;28;20115;-76
2023/12/20 01:39:36;;;;;;;55.97;50.35;;;5.80;80.60;;;;;;12560752;28;20036;-76
2023/12/20 01:45:38;;;;;;;55.22;49.35;;;5.70;80.70;;;;;;12561007;28;20025;-76
2023/12/20 01:51:40;;;;;;;49.25;44.40;;;5.70;80.70;;;;;;12559863;28;20441;-76
2023/12/20 01:57:42;;;;;;;50.45;45.70;;;5.70;80.70;;;;;;12559093;28;20442;-76
2023/12/20 02:03:44;;;;;;;53.35;47.67;;;5.70;80.60;;;;;;12559446;28;20430;-76
2023/12/20 02:09:46;;;;;;;51.78;46.78;;;5.60;80.50;;;;;;12559217;28;20040;-76
2023/12/20 02:15:48;;;;;;;42.05;37.72;;;5.60;80.50;;;;;;12558872;28;20033;-76
2023/12/20 02:21:50;;;;;;;55.78;49.97;;;5.60;80.40;;;;;;12558735;28;20040;-76
2023/12/20 02:27:52;;;;;;;47.88;43.40;;;5.60;80.40;;;;;;12557246;28;20041;-76
2023/12/20 02:33:53;;;;;;;44.92;39.88;;;5.50;80.40;;;;;;12540317;28;20437;-76
2023/12/20 02:39:55;;;;;;;49.03;43.85;;;5.50;80.40;;;;;;12558033;28;20033;-76
2023/12/20 02:45:56;;;;;;;46.10;41.47;;;5.50;80.50;;;;;;12539869;28;20033;-76
2023/12/20 02:51:58;;;;;;;112.20;104.93;;;5.70;81.00;;;;;;12557932;28;20029;-77
2023/12/20 02:57:59;;;;;;;43.58;39.40;;;5.60;80.70;;;;;;12556872;28;20037;-76
2023/12/20 03:04:01;;;;;;;71.47;66.30;;;5.50;80.60;;;;;;12538173;28;20037;-76
2023/12/20 03:10:03;;;;;;;56.00;49.92;;;5.40;80.60;;;;;;12556382;28;20029;-76
2023/12/20 03:16:10;;;;;;;65.10;59.55;;;5.40;80.60;;;;;;12538442;28;20269;-77
2023/12/20 03:22:11;;;;;;;60.90;55.50;;;5.40;80.50;;;;;;12555872;28;20029;-77
2023/12/20 03:28:15;;;;;;;49.25;44.53;;;5.40;80.70;;;;;;12555510;28;20036;-77
2023/12/20 03:34:17;;;;;;;49.97;45.00;;;5.20;80.60;;;;;;12537524;28;20040;-76
2023/12/20 03:40:18;;;;;;;60.45;55.65;;;5.00;81.20;;;;;;12555016;28;20025;-77
2023/12/20 03:46:20;;;;;;;47.08;42.08;;;4.90;81.40;;;;;;12554852;28;20150;-77
2023/12/20 03:52:22;;;;;;;48.53;44.25;;;5.00;81.10;;;;;;12537048;28;20041;-76
2023/12/20 03:58:23;;;;;;;43.85;39.90;;;5.00;80.90;;;;;;12536491;28;20044;-76
2023/12/20 04:04:25;;;;;;;60.50;55.92;;;5.10;80.90;;;;;;12536524;28;20041;-76
2023/12/20 04:10:26;;;;;;;74.43;68.45;;;5.20;80.70;;;;;;12536384;28;20044;-76
2023/12/20 04:16:28;;;;;;;91.47;83.93;;;5.20;80.60;;;;;;12553484;28;20033;-76
2023/12/20 04:22:29;;;;;;;54.42;49.25;;;5.30;80.80;;;;;;12536056;28;20033;-76
2023/12/20 04:28:31;;;;;;;48.10;43.08;;;5.40;80.70;;;;;;12520094;28;20041;-76
2023/12/20 04:34:32;;;;;;;53.20;48.55;;;5.50;80.40;;;;;;12535952;28;20445;-76
2023/12/20 04:40:34;;;;;;;76.75;69.95;;;5.40;80.20;;;;;;12535914;28;20446;-76
2023/12/20 04:46:36;;;;;;;60.75;55.28;;;5.20;80.60;;;;;;12536013;28;20342;-77
2023/12/20 04:52:37;;;;;;;43.28;39.15;;;5.50;80.60;;;;;;12553169;28;20040;-76
2023/12/20 04:58:39;;;;;;;54.83;49.13;;;5.70;80.60;;;;;;12535047;28;20045;-76
2023/12/20 05:04:41;;;;;;;60.72;55.15;;;5.80;80.30;;;;;;12552832;28;20028;-73
2023/12/20 05:10:43;;;;;;;81.22;75.40;;;5.70;80.00;;;;;;12552744;28;20365;-74
2023/12/20 05:16:44;;;;;;;85.65;78.97;;;5.40;80.90;;;;;;12534733;28;20036;-74
2023/12/20 05:22:47;;;;;;;48.55;43.20;;;5.70;80.90;;;;;;12534701;28;20044;-73
2023/12/20 05:28:48;;;;;;;100.70;92.93;;;5.90;80.50;;;;;;12537132;28;20029;-73
2023/12/20 05:34:50;;;;;;;54.47;45.78;;;5.90;80.20;;;;;;12560859;28;20033;-73
2023/12/20 05:40:52;;;;;;;49.97;44.83;;;5.90;80.30;;;;;;12560752;28;20036;-74
2023/12/20 05:46:53;;;;;;;61.38;54.78;;;5.90;80.20;;;;;;12560429;28;20043;-73
2023/12/20 05:52:55;;;;;;;53.05;47.10;;;6.10;80.30;;;;;;12560196;28;20033;-73
2023/12/20 05:58:56;;;;;;;51.85;46.80;;;6.20;80.00;;;;;;12541944;28;20036;-74
2023/12/20 06:04:58;;;;;;;94.50;87.88;;;6.20;79.80;;;;;;12559705;28;20025;-73
2023/12/20 06:11:00;;;;;;;47.42;42.45;;;6.40;79.90;;;;;;12559329;28;20353;-73
2023/12/20 06:17:01;;;;;;;51.22;45.90;;;6.60;80.70;;;;;;12558875;28;20037;-73
2023/12/20 06:23:03;;;;;;;98.80;92.07;;;6.60;80.30;;;;;;12558731;28;20037;-73
2023/12/20 06:29:05;;;;;;;120.18;112.47;;;6.70;80.80;;;;;;12558491;28;20445;-73
2023/12/20 06:35:07;;;;;;;115.18;107.63;;;6.70;80.40;;;;;;12540333;28;20045;-73
2023/12/20 06:41:08;;;;;;;113.47;106.60;;;6.60;80.40;;;;;;12539856;28;20025;-73
2023/12/20 06:47:13;;;;;;;61.83;56.50;;;6.70;80.50;;;;;;12557633;28;20391;-73
2023/12/20 06:53:17;;;;;;;55.80;51.17;;;6.80;80.10;;;;;;12556692;28;20437;-76
2023/12/20 06:59:19;;;;;;;54.63;50.17;;;6.80;79.90;;;;;;12621617;23;20345;-76
2023/12/20 07:05:22;;;;;;;40.92;37.08;;;6.70;80.00;;;;;;12656517;28;20027;-76
2023/12/20 07:11:24;;;;;;;106.90;100.53;;;6.80;80.00;;;;;;12639491;28;20032;-76
2023/12/20 07:17:27;;;;;;;38.88;35.05;;;6.80;79.90;;;;;;12654110;28;20036;-75
2023/12/20 07:23:49;;;;;;;63.05;57.90;;;6.90;79.90;;;;;;12655801;28;20035;-76
2023/12/20 07:29:54;;;;;;;56.85;52.35;;;6.90;79.80;;;;;;12655600;28;20444;-75
2023/12/20 07:35:56;;;;;;;58.13;53.97;;;7.20;80.20;;;;;;12655310;28;20345;-75
2023/12/20 07:41:57;;;;;;;119.03;111.72;;;7.20;80.10;;;;;;12637201;28;20035;-75
2023/12/20 07:47:59;;;;;;;69.18;64.28;;;7.10;80.50;;;;;;12655599;28;20031;-75
2023/12/20 07:54:00;;;;;;;130.38;123.43;;;7.20;80.60;;;;;;12654138;28;20032;-75
2023/12/20 08:00:03;;;;;;;68.80;63.90;;;7.20;80.50;;;;;;12619895;28;20036;-75
2023/12/20 08:06:06;;;;;;;93.25;87.53;;;7.30;80.70;;;;;;12654243;28;20032;-75
2023/12/20 08:12:09;;;;;;;147.85;140.32;;;7.40;80.90;;;;;;12631729;28;20043;-75
2023/12/20 08:18:11;;;;;;;99.07;92.28;;;7.40;80.70;;;;;;12654652;28;20058;-75
2023/12/20 08:24:12;;;;;;;97.05;91.10;;;7.40;80.90;;;;;;12635920;28;20032;-75
2023/12/20 08:30:14;;;;;;;97.82;91.13;;;7.40;80.90;;;;;;12635823;28;20028;-75
2023/12/20 08:36:17;;;;;;;158.13;150.05;;;7.50;81.00;;;;;;12635373;28;20032;-75
2023/12/20 08:42:20;;;;;;;178.07;168.73;;;7.70;81.10;;;;;;12618805;28;20055;-74
2023/12/20 08:48:21;;;;;;;172.90;164.13;;;7.80;82.30;;;;;;12635211;28;20451;-74
2023/12/20 08:54:24;;;;;;;202.15;192.77;;;7.90;83.10;;;;;;12653076;28;20036;-74
2023/12/20 09:00:27;;;;;;;145.18;138.25;;;7.90;83.50;;;;;;12652950;28;20464;-74
2023/12/20 09:06:30;;;;;;;187.85;178.20;;;7.90;83.50;;;;;;12626938;28;20437;-74
2023/12/20 09:12:32;;;;;;;95.75;90.28;;;7.60;83.40;;;;;;12644246;28;20032;-74
2023/12/20 09:18:34;;;;;;;187.57;178.77;;;7.60;83.70;;;;;;12662780;28;20039;-74
2023/12/20 09:24:36;;;;;;;157.65;149.15;;;7.50;83.60;;;;;;12643626;28;20051;-74
2023/12/20 09:30:39;;;;;;;182.00;173.15;;;7.60;84.00;;;;;;12643779;28;20040;-74
2023/12/20 09:36:52;;;;;;;169.02;161.13;;;7.80;83.60;;;;;;12661110;28;20032;-74
2023/12/20 09:42:58;;;;;;;166.18;158.05;;;7.90;83.70;;;;;;12660799;28;20031;-74
2023/12/20 09:49:01;;;;;;;165.10;157.02;;;7.80;83.60;;;;;;12660545;28;20038;-74
2023/12/20 09:55:05;;;;;;;153.23;145.98;;;7.70;84.00;;;;;;12642006;28;20036;-74
2023/12/20 10:01:11;;;;;;;86.78;80.88;;;7.50;84.20;;;;;;12659793;28;20159;-74
2023/12/20 10:07:14;;;;;;;74.43;70.07;;;7.50;84.80;;;;;;12659771;28;20040;-75
2023/12/20 10:13:15;;;;;;;133.25;126.30;;;7.70;84.90;;;;;;12640777;28;20032;-74
2023/12/20 10:19:19;;;;;;;216.55;206.68;;;8.00;85.00;;;;;;12640972;28;20023;-74
2023/12/20 10:25:21;;;;;;;132.57;125.80;;;8.20;84.90;;;;;;12658873;28;20348;-74
2023/12/20 10:31:34;;;;;;;144.05;137.38;;;8.30;85.00;;;;;;12658228;28;20032;-74
2023/12/20 10:37:39;;;;;;;68.22;64.75;;;8.30;85.00;;;;;;12657889;28;20036;-74
2023/12/20 10:43:59;;;;;;;56.03;52.80;;;8.50;84.90;;;;;;12657913;28;20318;-74
2023/12/20 10:50:05;;;;;;;99.38;94.18;;;8.60;84.90;;;;;;12639590;28;20032;-74
2023/12/20 10:56:11;;;;;;;40.25;36.88;;;8.70;85.00;;;;;;12657146;28;20051;-74
2023/12/20 11:02:12;;;;;;;35.45;32.63;;;8.80;85.00;;;;;;12638647;28;20036;-74
2023/12/20 11:08:26;;;;;;;25.13;22.88;;;8.80;85.40;;;;;;12656731;28;20028;-74
2023/12/20 11:14:43;;;;;;;22.50;20.15;;;8.90;85.50;;;;;;12638408;28;20035;-74
2023/12/20 11:20:44;;;;;;;17.50;15.57;;;9.00;85.80;;;;;;12638486;28;20051;-74
2023/12/20 11:26:50;;;;;;;21.27;13.95;;;9.20;86.00;;;;;;12637150;28;20051;-74
2023/12/20 11:32:52;;;;;;;17.00;13.60;;;9.20;86.20;;;;;;12637370;28;20036;-74
2023/12/20 11:38:57;;;;;;;15.77;12.68;;;9.20;86.00;;;;;;12655458;28;20344;-74
2023/12/20 11:45:03;;;;;;;14.30;11.52;;;9.20;86.30;;;;;;12648718;28;20028;-74
2023/12/20 11:51:12;;;;;;;18.05;13.73;;;9.30;86.40;;;;;;12635242;28;20100;-74
2023/12/20 11:57:17;;;;;;;14.55;11.82;;;9.40;86.40;;;;;;12654343;28;20032;-74
2023/12/20 12:03:19;;;;;;;16.02;12.20;;;9.50;86.20;;;;;;12640565;28;20043;-73
2023/12/20 12:09:20;;;;;;;17.35;12.35;;;9.60;86.30;;;;;;12638721;28;20036;-74
2023/12/20 12:15:22;;;;;;;13.15;9.45;;;9.50;86.30;;;;;;12660649;28;20039;-74
2023/12/20 12:21:24;;;;;;;17.38;13.80;;;9.60;86.30;;;;;;12632423;28;20040;-74
2023/12/20 12:27:27;;;;;;;17.92;14.63;;;9.50;86.50;;;;;;12603527;28;20345;-74
2023/12/20 12:33:30;;;;;;;20.55;15.68;;;9.50;86.50;;;;;;12603541;28;20032;-73
2023/12/20 12:39:31;;;;;;;19.02;13.93;;;9.60;86.30;;;;;;12591049;28;20040;-74
2023/12/20 12:45:33;;;;;;;18.38;15.90;;;9.70;86.30;;;;;;12613224;28;20341;-73
2023/12/20 12:51:34;;;;;;;17.20;14.73;;;9.70;86.50;;;;;;12609633;28;20036;-73
2023/12/20 12:57:40;;;;;;;18.52;15.40;;;9.60;86.40;;;;;;12606777;28;20033;-73
2023/12/20 13:03:49;;;;;;;15.30;12.60;;;9.40;86.40;;;;;;12606352;28;20166;-73
2023/12/20 13:09:50;;;;;;;19.27;15.40;;;9.40;86.50;;;;;;12572383;28;20345;-73
2023/12/20 13:15:56;;;;;;;20.17;18.10;;;9.20;86.80;;;;;;12608076;28;20158;-73
2023/12/20 13:21:58;;;;;;;17.30;13.02;;;9.30;86.90;;;;;;12605727;28;20330;-74
2023/12/20 13:27:59;;;;;;;22.33;15.70;;;9.40;86.60;;;;;;12606366;28;20024;-73
2023/12/20 13:34:01;;;;;;;41.80;39.10;;;9.20;86.40;;;;;;12607805;28;20429;-74
2023/12/20 13:40:03;;;;;;;52.03;49.15;;;8.80;86.60;;;;;;12586803;28;20036;-74
2023/12/20 13:46:05;;;;;;;92.00;87.85;;;8.60;87.00;;;;;;12604742;28;20024;-73
2023/12/20 13:52:07;;;;;;;50.33;47.47;;;8.80;87.60;;;;;;12609023;28;20043;-73
2023/12/20 13:58:12;;;;;;;19.55;15.65;;;9.20;87.20;;;;;;12609675;28;20036;-73
2023/12/20 14:04:13;;;;;;;17.52;14.40;;;9.50;86.80;;;;;;12609577;28;20353;-73
2023/12/20 14:10:16;;;;;;;16.73;13.13;;;9.70;86.40;;;;;;12609186;28;20060;-74
2023/12/20 14:16:18;;;;;;;18.13;15.57;;;9.80;86.40;;;;;;12608665;28;20039;-73
2023/12/20 14:22:20;;;;;;;17.58;15.73;;;9.80;86.40;;;;;;12591550;28;20029;-73
2023/12/20 14:28:21;;;;;;;20.13;16.65;;;9.80;86.60;;;;;;12608292;28;20065;-73
2023/12/20 14:34:24;;;;;;;23.48;17.48;;;9.90;86.50;;;;;;12590233;28;20048;-73
2023/12/20 14:40:35;;;;;;;19.67;17.58;;;9.90;86.30;;;;;;12623525;28;20029;-73
2023/12/20 14:46:37;;;;;;;17.52;15.70;;;9.90;86.20;;;;;;12607442;28;20040;-73
2023/12/20 14:52:39;;;;;;;18.05;15.82;;;9.70;86.60;;;;;;12589306;28;20055;-73
2023/12/20 14:58:41;;;;;;;20.45;17.95;;;9.80;86.40;;;;;;12595054;23;20369;-73
2023/12/20 15:04:42;;;;;;;25.33;18.13;;;9.60;86.60;;;;;;12606420;28;20028;-72
2023/12/20 15:10:44;;;;;;;27.27;23.00;;;9.40;86.50;;;;;;12606107;28;20028;-72
2023/12/20 15:16:47;;;;;;;25.20;21.73;;;9.50;87.00;;;;;;12605823;28;20357;-72
2023/12/20 15:22:50;;;;;;;23.80;19.92;;;9.80;86.50;;;;;;12589187;28;20138;-72
2023/12/20 15:28:52;;;;;;;25.65;22.27;;;9.50;86.20;;;;;;12602528;28;20020;-72
2023/12/20 15:34:53;;;;;;;30.83;26.92;;;9.30;86.80;;;;;;12605210;28;20035;-72
2023/12/20 15:40:56;;;;;;;45.45;31.30;;;9.50;86.50;;;;;;12587816;28;20373;-72
2023/12/20 15:46:57;;;;;;;38.00;32.75;;;9.70;86.20;;;;;;12586560;28;20041;-72
2023/12/20 15:53:00;;;;;;;38.38;29.90;;;9.80;85.80;;;;;;12586762;28;20047;-72
2023/12/20 15:59:01;;;;;;;42.90;32.92;;;9.80;85.30;;;;;;12652123;28;20027;-72
2023/12/20 16:05:03;;;;;;;38.72;33.30;;;9.70;85.00;;;;;;12704886;28;20024;-72
2023/12/20 16:11:05;;;;;;;42.28;35.13;;;9.60;84.70;;;;;;12661331;28;20031;-72
2023/12/20 16:17:06;;;;;;;42.08;36.35;;;9.60;84.90;;;;;;12617143;28;20340;-72
2023/12/20 16:23:09;;;;;;;41.65;33.75;;;9.60;84.60;;;;;;12704300;28;20031;-72
2023/12/20 16:29:12;;;;;;;53.97;44.17;;;9.60;84.40;;;;;;12702898;28;20032;-72
2023/12/20 16:35:14;;;;;;;53.35;42.22;;;9.50;84.50;;;;;;12704121;28;20137;-72
2023/12/20 16:41:15;;;;;;;54.85;48.78;;;9.50;84.50;;;;;;12703761;28;20027;-72
2023/12/20 16:47:24;;;;;;;65.03;59.15;;;9.40;84.40;;;;;;12702669;28;20360;-72
2023/12/20 16:53:25;;;;;;;60.22;55.10;;;9.20;84.30;;;;;;12695669;28;20028;-72
2023/12/20 16:59:27;;;;;;;56.33;50.92;;;9.20;84.60;;;;;;12635233;28;20032;-72
2023/12/20 17:05:57;;;;;;;44.30;39.05;;;9.30;84.40;;;;;;12623116;28;20082;-72
2023/12/20 17:11:59;;;;;;;64.15;58.35;;;9.40;84.20;;;;;;12651269;28;20032;-72
2023/12/20 17:18:02;;;;;;;43.47;36.65;;;9.30;84.20;;;;;;12652627;28;20032;-72
2023/12/20 17:24:04;;;;;;;60.47;54.58;;;9.40;84.10;;;;;;12654144;28;20039;-72
2023/12/20 17:30:06;;;;;;;65.55;60.30;;;9.30;84.30;;;;;;12660564;28;20040;-72
2023/12/20 17:36:10;;;;;;;55.90;51.28;;;9.30;84.30;;;;;;12661183;28;20051;-72
2023/12/20 17:42:13;;;;;;;57.88;52.72;;;9.30;84.30;;;;;;12660052;28;20040;-72
2023/12/20 17:48:14;;;;;;;63.97;58.33;;;9.40;84.30;;;;;;12659429;28;20028;-72
2023/12/20 17:54:16;;;;;;;71.38;66.03;;;9.30;84.20;;;;;;12660872;28;20039;-72
2023/12/20 18:00:20;;;;;;;97.82;91.97;;;9.20;83.90;;;;;;12675584;28;20044;-72
2023/12/20 18:06:23;;;;;;;109.60;103.43;;;9.00;84.30;;;;;;12675556;28;20433;-72
2023/12/20 18:12:25;;;;;;;160.63;152.00;;;8.80;84.50;;;;;;12659450;28;20043;-72
2023/12/20 18:18:27;;;;;;;78.50;73.13;;;8.90;84.50;;;;;;12654097;28;20447;-72
2023/12/20 18:24:28;;;;;;;129.57;122.15;;;8.80;84.10;;;;;;12640883;28;20070;-72
2023/12/20 18:30:30;;;;;;;157.15;148.52;;;8.50;84.50;;;;;;12658449;28;20317;-72
2023/12/20 18:36:32;;;;;;;194.63;184.85;;;8.50;84.70;;;;;;12657812;28;20039;-72
2023/12/20 18:42:33;;;;;;;151.77;143.43;;;8.60;84.50;;;;;;12656985;28;20040;-72
2023/12/20 18:48:35;;;;;;;124.63;117.50;;;8.70;84.10;;;;;;12657668;28;20035;-72
2023/12/20 18:54:37;;;;;;;198.63;189.10;;;8.70;84.00;;;;;;12657456;28;20031;-72
2023/12/20 19:00:39;;;;;;;110.60;103.50;;;8.80;83.80;;;;;;12657026;28;20032;-72
2023/12/20 19:06:41;;;;;;;120.95;113.95;;;8.70;83.50;;;;;;12656486;28;20024;-72
2023/12/20 19:12:42;;;;;;;84.28;78.55;;;8.40;83.70;;;;;;12656510;28;20031;-72
2023/12/20 19:18:45;;;;;;;102.38;95.97;;;8.40;83.70;;;;;;12656152;28;20028;-72
2023/12/20 19:24:47;;;;;;;109.07;102.43;;;8.40;83.50;;;;;;12656070;28;20020;-72
2023/12/20 19:30:49;;;;;;;89.07;83.25;;;8.50;83.50;;;;;;12655062;28;20051;-72
2023/12/20 19:36:51;;;;;;;91.70;85.95;;;8.30;83.80;;;;;;12654987;28;20032;-72
2023/12/20 19:42:53;;;;;;;73.05;68.40;;;7.90;84.50;;;;;;12655252;28;20043;-73
2023/12/20 19:48:54;;;;;;;162.90;153.63;;;8.00;85.40;;;;;;12654197;28;20452;-75
2023/12/20 19:54:58;;;;;;;154.05;146.25;;;8.00;84.70;;;;;;12670382;28;20032;-74
2023/12/20 20:01:00;;;;;;;67.40;62.03;;;7.60;84.80;;;;;;12636436;28;20047;-74
2023/12/20 20:07:01;;;;;;;73.65;67.28;;;7.50;85.30;;;;;;12655047;28;20436;-74
2023/12/20 20:13:03;;;;;;;149.02;140.60;;;7.70;85.00;;;;;;12653968;28;20039;-74
2023/12/20 20:19:05;;;;;;;86.47;80.22;;;7.90;84.60;;;;;;12652672;28;20360;-74
2023/12/20 20:25:07;;;;;;;144.95;137.18;;;8.00;84.20;;;;;;12653787;28;20028;-74
2023/12/20 20:31:09;;;;;;;109.80;103.00;;;7.70;84.10;;;;;;12653650;28;20043;-74
2023/12/20 20:37:11;;;;;;;51.70;46.65;;;7.40;84.60;;;;;;12654154;28;20039;-74
2023/12/20 20:43:13;;;;;;;75.20;69.38;;;7.50;84.80;;;;;;12653399;28;20035;-74
2023/12/20 20:49:16;;;;;;;65.53;59.95;;;7.60;84.50;;;;;;12652134;28;20354;-74
2023/12/20 20:55:18;;;;;;;53.83;49.17;;;7.70;84.30;;;;;;12618069;28;20033;-74
2023/12/20 21:01:19;;;;;;;156.68;147.82;;;7.70;84.00;;;;;;12609719;28;20036;-74
2023/12/20 21:07:21;;;;;;;55.92;50.92;;;7.60;84.00;;;;;;12612210;28;20055;-74
2023/12/20 21:13:23;;;;;;;104.70;99.10;;;7.40;84.10;;;;;;12610783;28;20045;-75
2023/12/20 21:19:25;;;;;;;68.53;63.67;;;7.00;84.40;;;;;;12611624;28;20036;-74
2023/12/20 21:25:26;;;;;;;31.98;28.23;;;6.80;84.70;;;;;;12611450;28;20032;-74
2023/12/20 21:31:29;;;;;;;46.55;42.63;;;7.10;85.00;;;;;;12611192;28;20036;-74
2023/12/20 21:37:31;;;;;;;21.55;19.25;;;7.20;84.60;;;;;;12610866;28;20024;-74
2023/12/20 21:43:32;;;;;;;40.53;37.22;;;6.90;84.70;;;;;;12610647;28;20067;-74
2023/12/20 21:49:34;;;;;;;52.35;48.53;;;7.10;85.00;;;;;;12610301;28;20024;-74
2023/12/20 21:55:37;;;;;;;106.60;100.38;;;7.50;84.90;;;;;;12609920;28;20036;-74
2023/12/20 22:01:44;;;;;;;54.33;50.85;;;7.60;84.40;;;;;;12609749;28;20032;-74
2023/12/20 22:07:46;;;;;;;108.13;102.15;;;7.50;84.20;;;;;;12609515;28;20056;-74
2023/12/20 22:13:47;;;;;;;58.92;55.00;;;7.30;84.50;;;;;;12624007;28;20433;-74
2023/12/20 22:19:49;;;;;;;45.67;41.97;;;7.30;84.30;;;;;;12608516;28;20036;-74
2023/12/20 22:25:51;;;;;;;32.03;29.00;;;7.20;84.60;;;;;;12608715;28;20024;-74
2023/12/20 22:31:52;;;;;;;44.55;41.10;;;7.20;84.30;;;;;;12608450;28;20025;-74
2023/12/20 22:37:54;;;;;;;100.97;94.50;;;7.20;84.40;;;;;;12607934;28;20032;-74
2023/12/20 22:43:56;;;;;;;91.80;86.30;;;7.20;84.50;;;;;;12607817;28;20032;-74
2023/12/20 22:49:57;;;;;;;45.08;41.45;;;7.20;84.30;;;;;;12607496;28;20460;-74
2023/12/20 22:55:59;;;;;;;40.03;36.65;;;7.20;84.10;;;;;;12624552;22;20044;-74
2023/12/20 23:02:01;;;;;;;87.50;82.25;;;7.10;84.10;;;;;;12639351;28;20040;-74
2023/12/20 23:08:03;;;;;;;25.88;23.15;;;6.90;84.40;;;;;;12656947;28;20056;-74
2023/12/20 23:14:05;;;;;;;22.88;19.65;;;6.70;84.80;;;;;;12638662;28;20043;-74
2023/12/20 23:20:07;;;;;;;35.30;32.00;;;6.70;85.00;;;;;;12656202;28;20028;-74
2023/12/20 23:26:10;;;;;;;28.98;24.38;;;6.80;84.90;;;;;;12656104;28;20020;-74
2023/12/20 23:32:15;;;;;;;26.20;22.88;;;6.80;84.40;;;;;;12655799;28;20024;-74
2023/12/20 23:38:19;;;;;;;26.73;24.05;;;6.90;84.50;;;;;;12655427;28;20032;-74
2023/12/20 23:44:20;;;;;;;25.63;23.00;;;7.00;84.20;;;;;;12637216;28;20340;-74
2023/12/20 23:50:22;;;;;;;38.30;35.05;;;7.00;84.00;;;;;;12655012;28;20028;-74
2023/12/20 23:56:24;;;;;;;34.97;32.40;;;6.90;84.00;;;;;;12636680;28;20034;-74
